Dobrin — AEDY — position and weather

sailwx.info

Track history (hours):
 
Tides and Currents Weather Stations Pressure Air Temp Water Temp Dewpoint Dewpoint Depression Visibility Wind Speed Wind Dir Waves Ship Positions

Dobrin

Last reported at 2018-Jul-18 19:38 UTC. Time now 2018-Jul-19 09:52 UTC.
Position N 40°41' W 074°04'.

Length 22 m; draft 2 m.

Type: Other ship. MMSI: 366999422.

Date/timePositionNaut miles runAvg speedWind from/ knotsBaromVisibWave heightAir tempDewpointWater temp
2018-Jul-18 19:38N 40°41' W 074°04'0 0.4
2018-Jul-18 19:30N 40°41' W 074°04'2 4.5
2018-Jul-18 19:00N 40°39' W 074°03'2 4.6
2018-Jul-18 18:30N 40°37' W 074°03'0 0.7
2018-Jul-18 18:00N 40°36' W 074°03'0 0.6
2018-Jul-18 17:30N 40°37' W 074°03'0 0.8
2018-Jul-18 17:00N 40°37' W 074°03'1 1.2
2018-Jul-18 16:30N 40°36' W 074°03'1 1.9
2018-Jul-18 16:00N 40°37' W 074°03'3 5.9
2018-Jul-18 15:30N 40°40' W 074°03'1 2.1
2018-Jul-18 15:00N 40°41' W 074°04'0 0.0
2018-Jul-18 14:30N 40°41' W 074°04'1 1.0
2018-Jul-18 13:30N 40°40' W 074°04'1 1.6
2018-Jul-18 13:00N 40°41' W 074°04'1 1.2
2018-Jul-18 12:30N 40°41' W 074°04'0 0.0
2018-Jul-17 19:25N 40°41' W 074°04'1 2.5
2018-Jul-17 19:00N 40°40' W 074°04'3 6.7
2018-Jul-17 18:30N 40°40' W 074°08'1 1.7
2018-Jul-17 18:00N 40°40' W 074°09'1 1.1
2018-Jul-17 17:30N 40°40' W 074°09'1 2.9
2018-Jul-17 17:00N 40°39' W 074°09'3 6.5
2018-Jul-17 16:30N 40°39' W 074°05'1 1.5
2018-Jul-17 16:00N 40°40' W 074°04'0 0.7
2018-Jul-17 15:28N 40°40' W 074°04'0 0.4
2018-Jul-17 14:58N 40°40' W 074°04'0 0.7
2018-Jul-17 14:30N 40°40' W 074°04'0 0.4
2018-Jul-17 14:00N 40°40' W 074°04'1 2.3
2018-Jul-17 13:30N 40°41' W 074°04'0 0.4
2018-Jul-17 13:00N 40°41' W 074°04'0 0.0
2018-Jul-17 12:30N 40°41' W 074°04'0 0.0
2018-Jul-16 19:46N 40°41' W 074°04'1 4.2
2018-Jul-16 19:30N 40°40' W 074°04'0 0.7
2018-Jul-16 19:00N 40°40' W 074°04'0 0.6
2018-Jul-16 18:30N 40°41' W 074°03'0 0.6
2018-Jul-16 18:00N 40°41' W 074°03'1 1.7
2018-Jul-16 17:30N 40°41' W 074°04'0 0.2
2018-Jul-16 16:08N 40°41' W 074°04'1 5.4
2018-Jul-16 16:01N 40°41' W 074°04'2 4.6
2018-Jul-16 15:30N 40°39' W 074°02'1 2.0
2018-Jul-16 15:00N 40°39' W 074°03'2 3.4
2018-Jul-16 14:30N 40°40' W 074°02'1 2.5
2018-Jul-16 14:00N 40°40' W 074°03'1 2.1
2018-Jul-16 13:30N 40°40' W 074°04'  
2018-Jul-12 17:38N 40°41' W 074°04'1 8.9
2018-Jul-12 17:31N 40°40' W 074°03'1 1.8
2018-Jul-12 17:01N 40°39' W 074°03'1 1.3
2018-Jul-12 16:30N 40°40' W 074°03'1 2.5
2018-Jul-12 16:00N 40°41' W 074°02'0 0.6
2018-Jul-12 15:30N 40°40' W 074°02'2 3.9
2018-Jul-12 15:01N 40°40' W 074°04'1 2.3
2018-Jul-12 14:30N 40°40' W 074°03'2 3.2
2018-Jul-12 14:01N 40°41' W 074°04'5 0.3
2018-Jul-11 19:27N 40°36' W 074°03'4 1.0
2018-Jul-11 15:00N 40°32' W 074°02'611.4
2018-Jul-11 14:30N 40°37' W 074°03'3 6.5
2018-Jul-11 14:00N 40°41' W 074°04'1 1.2
2018-Jul-11 13:30N 40°41' W 074°04'0 0.0
2018-Jul-11 13:00N 40°41' W 074°04'0 0.0
2018-Jul-11 12:31N 40°41' W 074°04'4 0.2
2018-Jul-10 20:16N 40°37' W 074°03'8 1.5
2018-Jul-10 14:47N 40°30' W 074°06'5 9.2
2018-Jul-10 14:16N 40°33' W 074°02'312.7
2018-Jul-10 14:00N 40°37' W 074°03'4 7.2
2018-Jul-10 13:30N 40°40' W 074°03'1 2.6
2018-Jul-10 13:00N 40°41' W 074°04'0 0.0
2018-Jul-10 12:30N 40°41' W 074°04'0 0.1
2018-Jul-10 12:00N 40°41' W 074°04'  
Track history (hours):
 
Tides and Currents Weather Stations Pressure Air Temp Water Temp Dewpoint Dewpoint Depression Visibility Wind Speed Wind Dir Waves Ship Positions

Dobrin

Last reported at 2018-Jul-18 19:38 UTC. Time now 2018-Jul-19 09:52 UTC.
Position N 40°41' W 074°04'.

Length 22 m; draft 2 m.

Type: Other ship. MMSI: 366999422.

Date/timePositionNaut miles runAvg speedWind from/ knotsBaromVisibWave heightAir tempDewpointWater temp
2018-Jul-18 19:38N 40°41' W 074°04'0 0.4
2018-Jul-18 19:30N 40°41' W 074°04'2 4.5
2018-Jul-18 19:00N 40°39' W 074°03'2 4.6
2018-Jul-18 18:30N 40°37' W 074°03'0 0.7
2018-Jul-18 18:00N 40°36' W 074°03'0 0.6
2018-Jul-18 17:30N 40°37' W 074°03'0 0.8
2018-Jul-18 17:00N 40°37' W 074°03'1 1.2
2018-Jul-18 16:30N 40°36' W 074°03'1 1.9
2018-Jul-18 16:00N 40°37' W 074°03'3 5.9
2018-Jul-18 15:30N 40°40' W 074°03'1 2.1
2018-Jul-18 15:00N 40°41' W 074°04'0 0.0
2018-Jul-18 14:30N 40°41' W 074°04'1 1.0
2018-Jul-18 13:30N 40°40' W 074°04'1 1.6
2018-Jul-18 13:00N 40°41' W 074°04'1 1.2
2018-Jul-18 12:30N 40°41' W 074°04'0 0.0
2018-Jul-17 19:25N 40°41' W 074°04'1 2.5
2018-Jul-17 19:00N 40°40' W 074°04'3 6.7
2018-Jul-17 18:30N 40°40' W 074°08'1 1.7
2018-Jul-17 18:00N 40°40' W 074°09'1 1.1
2018-Jul-17 17:30N 40°40' W 074°09'1 2.9
2018-Jul-17 17:00N 40°39' W 074°09'3 6.5
2018-Jul-17 16:30N 40°39' W 074°05'1 1.5
2018-Jul-17 16:00N 40°40' W 074°04'0 0.7
2018-Jul-17 15:28N 40°40' W 074°04'0 0.4
2018-Jul-17 14:58N 40°40' W 074°04'0 0.7
2018-Jul-17 14:30N 40°40' W 074°04'0 0.4
2018-Jul-17 14:00N 40°40' W 074°04'1 2.3
2018-Jul-17 13:30N 40°41' W 074°04'0 0.4
2018-Jul-17 13:00N 40°41' W 074°04'0 0.0
2018-Jul-17 12:30N 40°41' W 074°04'0 0.0
2018-Jul-16 19:46N 40°41' W 074°04'1 4.2
2018-Jul-16 19:30N 40°40' W 074°04'0 0.7
2018-Jul-16 19:00N 40°40' W 074°04'0 0.6
2018-Jul-16 18:30N 40°41' W 074°03'0 0.6
2018-Jul-16 18:00N 40°41' W 074°03'1 1.7
2018-Jul-16 17:30N 40°41' W 074°04'0 0.2
2018-Jul-16 16:08N 40°41' W 074°04'1 5.4
2018-Jul-16 16:01N 40°41' W 074°04'2 4.6
2018-Jul-16 15:30N 40°39' W 074°02'1 2.0
2018-Jul-16 15:00N 40°39' W 074°03'2 3.4
2018-Jul-16 14:30N 40°40' W 074°02'1 2.5
2018-Jul-16 14:00N 40°40' W 074°03'1 2.1
2018-Jul-16 13:30N 40°40' W 074°04'  
2018-Jul-12 17:38N 40°41' W 074°04'1 8.9
2018-Jul-12 17:31N 40°40' W 074°03'1 1.8
2018-Jul-12 17:01N 40°39' W 074°03'1 1.3
2018-Jul-12 16:30N 40°40' W 074°03'1 2.5
2018-Jul-12 16:00N 40°41' W 074°02'0 0.6
2018-Jul-12 15:30N 40°40' W 074°02'2 3.9
2018-Jul-12 15:01N 40°40' W 074°04'1 2.3
2018-Jul-12 14:30N 40°40' W 074°03'2 3.2
2018-Jul-12 14:01N 40°41' W 074°04'5 0.3
2018-Jul-11 19:27N 40°36' W 074°03'4 1.0
2018-Jul-11 15:00N 40°32' W 074°02'611.4
2018-Jul-11 14:30N 40°37' W 074°03'3 6.5
2018-Jul-11 14:00N 40°41' W 074°04'1 1.2
2018-Jul-11 13:30N 40°41' W 074°04'0 0.0
2018-Jul-11 13:00N 40°41' W 074°04'0 0.0
2018-Jul-11 12:31N 40°41' W 074°04'4 0.2
2018-Jul-10 20:16N 40°37' W 074°03'8 1.5
2018-Jul-10 14:47N 40°30' W 074°06'5 9.2
2018-Jul-10 14:16N 40°33' W 074°02'312.7
2018-Jul-10 14:00N 40°37' W 074°03'4 7.2
2018-Jul-10 13:30N 40°40' W 074°03'1 2.6
2018-Jul-10 13:00N 40°41' W 074°04'0 0.0
2018-Jul-10 12:30N 40°41' W 074°04'0 0.1
2018-Jul-10 12:00N 40°41' W 074°04'  

Dump ship's entire track history